createdAt,value
2023-05-06T00:00:18.191Z,71.95
2023-05-06T00:01:20.410Z,72.31
2023-05-06T00:02:22.840Z,72.65
2023-05-06T00:03:25.126Z,72.23
2023-05-06T00:04:28.152Z,71.67
2023-05-06T00:05:30.346Z,72.03
2023-05-06T00:06:33.491Z,72.52
2023-05-06T00:07:35.835Z,72.96
2023-05-06T00:08:37.949Z,72.66
2023-05-06T00:09:40.063Z,72.50
2023-05-06T00:10:42.367Z,72.78
2023-05-06T00:11:45.852Z,72.20
2023-05-06T00:12:48.017Z,72.47
2023-05-06T00:13:50.165Z,72.92
2023-05-06T00:14:52.256Z,72.46
2023-05-06T00:15:54.480Z,72.48
2023-05-06T00:16:56.635Z,72.39
2023-05-06T00:17:58.841Z,72.46
2023-05-06T00:19:01.031Z,72.82
2023-05-06T00:20:03.828Z,72.91
2023-05-06T00:21:06.362Z,73.02
2023-05-06T00:22:08.528Z,73.16
2023-05-06T00:23:11.041Z,73.49
2023-05-06T00:24:13.153Z,73.63
2023-05-06T00:25:15.275Z,73.62
2023-05-06T00:26:18.935Z,73.84
2023-05-06T00:27:21.034Z,73.79
2023-05-06T00:28:23.137Z,74.06
2023-05-06T00:29:25.284Z,74.14
2023-05-06T00:30:27.476Z,74.31
2023-05-06T00:31:29.679Z,74.24
2023-05-06T00:32:31.810Z,74.23
2023-05-06T00:33:33.938Z,74.00
2023-05-06T00:34:36.010Z,73.75
2023-05-06T00:35:38.177Z,73.65
2023-05-06T00:36:40.314Z,73.81
2023-05-06T00:37:46.136Z,73.66
2023-05-06T00:38:48.212Z,73.72
2023-05-06T00:39:50.385Z,73.88
2023-05-06T00:40:52.501Z,73.74
2023-05-06T00:41:59.570Z,73.86
2023-05-06T00:43:02.688Z,73.70
2023-05-06T00:44:04.766Z,74.06
2023-05-06T00:45:07.524Z,73.90
2023-05-06T00:46:11.556Z,73.48
2023-05-06T00:47:13.971Z,73.85
2023-05-06T00:48:16.441Z,73.89
2023-05-06T00:49:18.623Z,74.18
2023-05-06T00:50:21.787Z,73.87
2023-05-06T00:51:23.942Z,73.74
2023-05-06T00:52:26.421Z,73.66
2023-05-06T00:53:28.584Z,73.90
2023-05-06T00:54:30.868Z,73.76
2023-05-06T00:55:33.028Z,74.10
2023-05-06T00:56:35.148Z,74.50
2023-05-06T00:57:37.960Z,74.28
2023-05-06T00:58:40.073Z,74.47
2023-05-06T00:59:42.402Z,74.19
2023-05-06T01:00:44.705Z,74.44
2023-05-06T01:01:47.218Z,74.70
2023-05-06T01:02:49.709Z,74.77
2023-05-06T01:03:57.139Z,74.86
2023-05-06T01:05:00.309Z,75.08
2023-05-06T01:06:11.065Z,75.27
2023-05-06T01:07:42.622Z,75.13
2023-05-06T01:09:01.094Z,74.92
2023-05-06T01:10:10.225Z,74.93
2023-05-06T01:11:16.735Z,75.26
2023-05-06T01:12:33.031Z,75.14
2023-05-06T01:13:57.266Z,75.05
2023-05-06T01:15:09.796Z,75.06
2023-05-06T01:16:13.235Z,75.17
2023-05-06T01:17:18.741Z,75.31
2023-05-06T01:18:25.970Z,75.19
2023-05-06T01:19:37.443Z,75.37
2023-05-06T01:20:42.338Z,75.29
2023-05-06T01:21:45.812Z,75.29
2023-05-06T01:22:49.858Z,75.27
2023-05-06T01:24:00.063Z,75.01
2023-05-06T01:25:02.221Z,75.13
2023-05-06T01:26:04.349Z,74.92
2023-05-06T01:27:07.411Z,74.81
2023-05-06T01:28:11.497Z,74.82
2023-05-06T01:29:13.658Z,74.99
2023-05-06T01:30:17.304Z,74.75
2023-05-06T01:31:40.024Z,74.82
2023-05-06T01:32:51.152Z,74.66
2023-05-06T01:33:53.118Z,75.09
2023-05-06T01:35:00.802Z,74.78
2023-05-06T01:36:14.532Z,75.09
2023-05-06T01:37:23.577Z,74.85
2023-05-06T01:38:35.755Z,75.40
2023-05-06T01:39:39.423Z,75.39
2023-05-06T01:40:43.379Z,75.45
2023-05-06T01:41:48.403Z,75.69
2023-05-06T01:42:50.906Z,76.12
2023-05-06T01:43:54.335Z,76.00
2023-05-06T01:44:57.350Z,75.91
2023-05-06T01:46:00.629Z,76.37
2023-05-06T01:47:03.226Z,76.32
2023-05-06T01:48:06.041Z,76.24
2023-05-06T01:49:11.425Z,75.52
2023-05-06T01:50:13.935Z,75.47
2023-05-06T01:51:16.081Z,75.24
2023-05-06T01:52:18.199Z,75.39
2023-05-06T01:53:20.317Z,75.35
2023-05-06T01:54:22.490Z,75.06
2023-05-06T01:55:24.690Z,75.19
2023-05-06T01:56:27.218Z,75.28
2023-05-06T01:57:29.349Z,75.48
2023-05-06T01:58:31.486Z,75.64
2023-05-06T01:59:33.631Z,75.60
2023-05-06T02:00:39.300Z,75.76
2023-05-06T02:01:41.490Z,75.78
2023-05-06T02:02:43.667Z,75.91
2023-05-06T02:03:45.888Z,75.46
2023-05-06T02:04:48.120Z,75.55
2023-05-06T02:05:50.243Z,75.75
2023-05-06T02:06:52.416Z,75.95
2023-05-06T02:07:54.533Z,75.74
2023-05-06T02:08:56.610Z,75.62
2023-05-06T02:09:58.717Z,75.78
2023-05-06T02:11:00.788Z,75.76
2023-05-06T02:12:02.915Z,75.56
2023-05-06T02:13:05.351Z,75.92
2023-05-06T02:14:07.530Z,76.07
2023-05-06T02:15:10.219Z,76.06
2023-05-06T02:16:12.590Z,75.91
2023-05-06T02:17:14.730Z,75.91
2023-05-06T02:18:16.830Z,76.16
2023-05-06T02:19:19.193Z,76.12
2023-05-06T02:20:21.436Z,76.17
2023-05-06T02:21:23.688Z,76.32
2023-05-06T02:22:25.819Z,76.58
2023-05-06T02:23:27.926Z,76.46
2023-05-06T02:24:30.008Z,76.38
2023-05-06T02:25:32.073Z,76.62
2023-05-06T02:26:34.171Z,76.59
2023-05-06T02:27:36.321Z,76.67
2023-05-06T02:28:38.404Z,76.63
2023-05-06T02:29:40.472Z,76.96
2023-05-06T02:30:42.608Z,76.73
2023-05-06T02:31:44.757Z,77.07
2023-05-06T02:32:47.309Z,77.17
2023-05-06T02:33:49.469Z,76.84
2023-05-06T02:34:53.169Z,76.76
2023-05-06T02:35:55.282Z,76.79
2023-05-06T02:36:57.505Z,77.01
2023-05-06T02:37:59.929Z,77.08
2023-05-06T02:39:02.018Z,77.04
2023-05-06T02:40:06.431Z,77.17
2023-05-06T02:41:08.613Z,77.10
2023-05-06T02:42:13.955Z,77.37
2023-05-06T02:43:16.091Z,77.33
2023-05-06T02:44:18.193Z,77.43
2023-05-06T02:45:20.350Z,77.43
2023-05-06T02:46:22.603Z,77.49
2023-05-06T02:47:24.804Z,77.49
2023-05-06T02:48:26.877Z,77.57
2023-05-06T02:49:28.978Z,77.73
2023-05-06T02:50:31.124Z,77.59
2023-05-06T02:51:33.192Z,78.10
2023-05-06T02:52:35.447Z,78.14
2023-05-06T02:53:37.617Z,78.18
2023-05-06T02:54:39.742Z,78.07
2023-05-06T02:55:41.825Z,78.03
2023-05-06T02:56:46.371Z,78.13
2023-05-06T02:57:48.499Z,78.33
2023-05-06T02:58:50.761Z,78.50
2023-05-06T02:59:52.998Z,78.22
2023-05-06T03:00:55.122Z,78.46
2023-05-06T03:01:57.225Z,78.46
2023-05-06T03:02:59.350Z,78.72
2023-05-06T03:04:01.509Z,78.52
2023-05-06T03:05:06.856Z,78.55
2023-05-06T03:06:08.978Z,78.62
2023-05-06T03:07:13.057Z,78.70
2023-05-06T03:08:15.152Z,78.84
2023-05-06T03:09:17.248Z,78.91
2023-05-06T03:10:19.418Z,78.64
2023-05-06T03:11:21.549Z,78.68
2023-05-06T03:12:23.646Z,78.57
2023-05-06T03:13:25.830Z,78.56
2023-05-06T03:14:28.214Z,78.53
2023-05-06T03:15:30.560Z,78.52
2023-05-06T03:16:32.640Z,78.49
2023-05-06T03:17:34.756Z,78.32
2023-05-06T03:18:36.857Z,78.14
2023-05-06T03:19:38.947Z,78.45
2023-05-06T03:20:41.130Z,78.37
2023-05-06T03:21:43.539Z,78.63
2023-05-06T03:22:45.764Z,78.50
2023-05-06T03:23:47.872Z,78.76
2023-05-06T03:24:50.066Z,78.54
2023-05-06T03:25:52.212Z,78.50
2023-05-06T03:26:54.339Z,78.49
2023-05-06T03:27:56.447Z,78.40
2023-05-06T03:28:59.157Z,78.45
2023-05-06T03:30:01.261Z,78.34
2023-05-06T03:31:03.505Z,78.48
2023-05-06T03:32:06.001Z,78.70
2023-05-06T03:33:08.191Z,78.25
2023-05-06T03:34:10.396Z,78.61
2023-05-06T03:35:13.046Z,78.57
2023-05-06T03:36:15.280Z,78.11
2023-05-06T03:37:17.353Z,78.22
2023-05-06T03:38:19.439Z,78.08
2023-05-06T03:39:21.611Z,77.91
2023-05-06T03:40:23.763Z,78.04
2023-05-06T03:41:25.938Z,77.86
2023-05-06T03:42:28.076Z,77.87
2023-05-06T03:43:30.536Z,77.79
2023-05-06T03:44:32.726Z,77.38
2023-05-06T03:45:34.848Z,77.20
2023-05-06T03:46:39.054Z,77.18
2023-05-06T03:47:41.312Z,77.24
2023-05-06T03:48:43.448Z,77.17
2023-05-06T03:49:45.616Z,77.06
2023-05-06T03:50:47.784Z,76.83
2023-05-06T03:51:50.036Z,76.80
2023-05-06T03:52:52.153Z,76.48
2023-05-06T03:53:54.960Z,76.36
2023-05-06T03:54:57.127Z,76.72
2023-05-06T03:55:59.343Z,76.67
2023-05-06T03:57:02.543Z,77.07
2023-05-06T03:58:04.694Z,76.87
2023-05-06T03:59:06.853Z,77.00
2023-05-06T04:00:09.605Z,77.13
2023-05-06T04:01:11.774Z,77.63
2023-05-06T04:02:14.553Z,77.88
2023-05-06T04:03:16.822Z,78.09
2023-05-06T04:04:19.084Z,78.06
2023-05-06T04:05:21.254Z,78.07
2023-05-06T04:06:23.386Z,77.68
2023-05-06T04:07:25.658Z,77.85
2023-05-06T04:08:27.755Z,78.21
2023-05-06T04:09:31.435Z,78.23
2023-05-06T04:10:38.627Z,78.00
2023-05-06T04:11:40.723Z,77.90
2023-05-06T04:12:42.841Z,78.39
2023-05-06T04:13:45.369Z,77.84
2023-05-06T04:14:48.263Z,77.54
2023-05-06T04:15:50.460Z,76.98
2023-05-06T04:16:52.630Z,77.57
2023-05-06T04:17:54.765Z,77.14
2023-05-06T04:18:57.650Z,77.15
2023-05-06T04:20:01.261Z,77.02
2023-05-06T04:21:03.551Z,76.90
2023-05-06T04:22:05.689Z,76.79
2023-05-06T04:23:07.864Z,76.68
2023-05-06T04:24:09.954Z,76.59
2023-05-06T04:25:12.406Z,76.34
2023-05-06T04:26:14.789Z,76.06
2023-05-06T04:27:16.951Z,75.78
2023-05-06T04:28:19.074Z,75.44
2023-05-06T04:29:21.165Z,75.51
2023-05-06T04:30:23.354Z,75.44
2023-05-06T04:31:25.499Z,75.39
2023-05-06T04:32:27.687Z,75.36
2023-05-06T04:33:29.972Z,75.02
2023-05-06T04:34:32.217Z,75.33
2023-05-06T04:35:34.813Z,75.14
2023-05-06T04:36:38.372Z,74.78
2023-05-06T04:37:43.492Z,74.63
2023-05-06T04:38:47.306Z,74.98
2023-05-06T04:39:49.417Z,74.71
2023-05-06T04:40:51.900Z,74.73
2023-05-06T04:41:54.399Z,74.61
2023-05-06T04:42:56.514Z,74.50
2023-05-06T04:43:58.866Z,74.10
2023-05-06T04:45:01.009Z,73.80
2023-05-06T04:46:03.380Z,73.56
2023-05-06T04:47:05.690Z,73.55
2023-05-06T04:48:09.758Z,73.87
2023-05-06T04:49:12.624Z,73.59
2023-05-06T04:50:14.864Z,73.63
2023-05-06T04:51:16.976Z,73.54
2023-05-06T04:52:19.059Z,73.15
2023-05-06T04:53:21.194Z,73.09
2023-05-06T04:54:23.362Z,73.25
2023-05-06T04:55:25.466Z,72.63
2023-05-06T04:56:27.674Z,72.63
2023-05-06T04:57:31.286Z,72.56
2023-05-06T04:58:33.594Z,72.83
2023-05-06T04:59:35.773Z,72.79
2023-05-06T05:00:37.853Z,72.82
2023-05-06T05:01:40.065Z,72.52
2023-05-06T05:02:42.295Z,72.43
2023-05-06T05:03:44.460Z,72.49
2023-05-06T05:04:46.737Z,72.64
2023-05-06T05:05:48.839Z,72.79
2023-05-06T05:06:51.012Z,72.36
2023-05-06T05:07:53.121Z,72.46
2023-05-06T05:08:55.492Z,72.30
2023-05-06T05:09:57.704Z,72.06
2023-05-06T05:10:59.814Z,72.32
2023-05-06T05:12:02.909Z,72.25
2023-05-06T05:13:06.217Z,71.86
2023-05-06T05:14:08.328Z,71.49
2023-05-06T05:15:11.187Z,71.24
2023-05-06T05:16:13.854Z,71.32
2023-05-06T05:17:16.144Z,71.24
2023-05-06T05:18:18.488Z,70.96
2023-05-06T05:19:21.488Z,70.81
2023-05-06T05:20:23.884Z,71.01
2023-05-06T05:21:26.512Z,71.06
2023-05-06T05:22:28.627Z,70.91
2023-05-06T05:23:30.716Z,70.53
2023-05-06T05:24:32.837Z,70.24
2023-05-06T05:25:34.972Z,70.56
2023-05-06T05:26:37.078Z,70.51
2023-05-06T05:27:39.186Z,69.33
2023-05-06T05:28:41.282Z,69.38
2023-05-06T05:29:43.356Z,68.91
2023-05-06T05:30:45.643Z,68.83
2023-05-06T05:31:47.869Z,68.68
2023-05-06T05:32:50.076Z,68.74
2023-05-06T05:33:52.340Z,68.75
2023-05-06T05:34:54.522Z,68.59
2023-05-06T05:35:57.624Z,68.37
2023-05-06T05:36:59.794Z,68.38
2023-05-06T05:38:01.970Z,68.67
2023-05-06T05:39:04.175Z,68.53
2023-05-06T05:40:06.970Z,68.53
2023-05-06T05:41:09.233Z,68.22
2023-05-06T05:42:11.490Z,67.76
2023-05-06T05:43:13.587Z,67.83
2023-05-06T05:44:16.035Z,67.57
2023-05-06T05:45:18.188Z,67.14
2023-05-06T05:46:20.608Z,66.99
2023-05-06T05:47:22.777Z,66.47
2023-05-06T05:48:24.920Z,65.95
2023-05-06T05:49:27.048Z,66.27
2023-05-06T05:50:29.155Z,66.79
2023-05-06T05:51:31.365Z,66.75
2023-05-06T05:52:33.483Z,66.42
2023-05-06T05:53:35.610Z,65.90
2023-05-06T05:54:37.697Z,65.68
2023-05-06T05:55:39.836Z,65.33
2023-05-06T05:56:42.099Z,64.52
2023-05-06T05:57:44.138Z,64.02
2023-05-06T05:58:47.472Z,63.98
2023-05-06T05:59:49.605Z,63.81
2023-05-06T06:00:52.318Z,63.51
2023-05-06T06:01:54.457Z,62.81
2023-05-06T06:02:56.715Z,62.58
2023-05-06T06:04:00.005Z,62.29
2023-05-06T06:05:02.490Z,61.93
2023-05-06T06:06:04.618Z,61.62
2023-05-06T06:07:06.858Z,60.99
2023-05-06T06:08:08.990Z,60.51
2023-05-06T06:09:11.287Z,60.78
2023-05-06T06:10:14.935Z,60.13
2023-05-06T06:11:17.030Z,60.22
2023-05-06T06:12:19.210Z,60.13
2023-05-06T06:13:21.741Z,60.02
2023-05-06T06:14:24.038Z,59.69
2023-05-06T06:15:26.190Z,59.66
2023-05-06T06:16:28.660Z,59.29
2023-05-06T06:17:30.835Z,58.86
2023-05-06T06:18:33.011Z,58.17
2023-05-06T06:19:35.677Z,58.68
2023-05-06T06:20:37.758Z,57.86
2023-05-06T06:21:39.912Z,57.69
2023-05-06T06:22:42.101Z,57.86
2023-05-06T06:23:44.251Z,58.35
2023-05-06T06:24:46.376Z,57.35
2023-05-06T06:25:48.495Z,56.96
2023-05-06T06:26:50.648Z,57.18
2023-05-06T06:27:54.203Z,56.47
2023-05-06T06:28:56.264Z,55.91
2023-05-06T06:29:58.362Z,55.64
2023-05-06T06:31:00.596Z,55.93
2023-05-06T06:32:03.769Z,56.23
2023-05-06T06:33:06.096Z,57.01
2023-05-06T06:34:09.112Z,57.63
2023-05-06T06:35:11.354Z,56.87
2023-05-06T06:36:13.636Z,56.71
2023-05-06T06:37:15.768Z,56.74
2023-05-06T06:38:17.856Z,56.62
2023-05-06T06:39:20.049Z,56.79
2023-05-06T06:40:22.419Z,56.50
2023-05-06T06:41:24.626Z,56.07
2023-05-06T06:42:27.293Z,54.74
2023-05-06T06:43:29.448Z,55.35
2023-05-06T06:44:31.628Z,55.51
2023-05-06T06:45:33.781Z,55.20
2023-05-06T06:46:35.892Z,55.26
2023-05-06T06:47:38.013Z,55.20
2023-05-06T06:48:40.599Z,55.57
2023-05-06T06:49:42.700Z,55.55
2023-05-06T06:50:44.823Z,55.00
2023-05-06T06:51:46.940Z,55.19
2023-05-06T06:52:49.047Z,56.22
2023-05-06T06:53:52.077Z,55.88
2023-05-06T06:54:54.213Z,55.87
2023-05-06T06:55:56.323Z,55.84
2023-05-06T06:56:58.446Z,55.34
2023-05-06T06:58:00.549Z,55.19
2023-05-06T06:59:02.659Z,56.00
2023-05-06T07:00:05.253Z,54.84
2023-05-06T07:01:07.411Z,54.51
2023-05-06T07:02:09.598Z,54.73
2023-05-06T07:03:11.710Z,54.14
2023-05-06T07:04:13.885Z,53.97
2023-05-06T07:05:16.065Z,53.54
2023-05-06T07:06:18.192Z,53.79
2023-05-06T07:07:20.373Z,54.34
2023-05-06T07:08:22.508Z,53.59
2023-05-06T07:09:24.631Z,53.54
2023-05-06T07:10:27.062Z,53.52
2023-05-06T07:11:29.355Z,53.31
2023-05-06T07:12:31.468Z,53.46
2023-05-06T07:13:33.581Z,53.36
2023-05-06T07:14:35.694Z,53.39
2023-05-06T07:15:37.793Z,53.32
2023-05-06T07:16:39.996Z,53.01
2023-05-06T07:17:42.229Z,52.55
2023-05-06T07:18:45.216Z,53.21
2023-05-06T07:19:47.322Z,52.51
2023-05-06T07:20:49.476Z,52.81
2023-05-06T07:21:51.586Z,52.73
2023-05-06T07:22:53.662Z,52.95
2023-05-06T07:23:55.760Z,52.95
2023-05-06T07:24:57.954Z,52.29
2023-05-06T07:26:00.042Z,52.40
2023-05-06T07:27:02.300Z,52.23
2023-05-06T07:28:05.080Z,52.18
2023-05-06T07:29:07.170Z,51.29
2023-05-06T07:30:09.604Z,50.59
2023-05-06T07:31:11.811Z,50.79
2023-05-06T07:32:14.038Z,51.17
2023-05-06T07:33:16.298Z,50.66
2023-05-06T07:34:19.916Z,50.83
2023-05-06T07:35:22.045Z,51.26
2023-05-06T07:36:24.612Z,51.50
2023-05-06T07:37:26.738Z,51.72
2023-05-06T07:38:28.892Z,51.77
2023-05-06T07:39:31.240Z,50.76
2023-05-06T07:40:33.473Z,50.60
2023-05-06T07:41:35.746Z,50.82
2023-05-06T07:42:37.842Z,52.07
2023-05-06T07:43:39.957Z,51.01
2023-05-06T07:44:42.071Z,50.33
2023-05-06T07:45:44.311Z,48.83
2023-05-06T07:46:46.756Z,49.08
2023-05-06T07:47:49.250Z,50.10
2023-05-06T07:48:51.730Z,50.42
2023-05-06T07:49:54.343Z,50.74
2023-05-06T07:50:56.571Z,50.63
2023-05-06T07:51:59.171Z,50.36
2023-05-06T07:53:01.747Z,50.28
2023-05-06T07:54:03.946Z,50.12
2023-05-06T07:55:09.203Z,50.63
2023-05-06T07:56:11.665Z,51.01
2023-05-06T07:57:14.119Z,50.65
2023-05-06T07:58:16.226Z,50.41
2023-05-06T07:59:18.326Z,50.17
2023-05-06T08:00:20.596Z,50.19
2023-05-06T08:01:22.671Z,50.54
2023-05-06T08:02:24.844Z,50.28
2023-05-06T08:03:27.319Z,50.17
2023-05-06T08:04:29.625Z,49.66
2023-05-06T08:05:31.839Z,49.51
2023-05-06T08:06:34.250Z,49.36
2023-05-06T08:07:36.978Z,49.42
2023-05-06T08:08:39.101Z,48.67
2023-05-06T08:09:41.232Z,49.04
2023-05-06T08:10:44.046Z,48.87
2023-05-06T08:11:46.177Z,48.94
2023-05-06T08:12:48.372Z,48.87
2023-05-06T08:13:50.674Z,49.19
2023-05-06T08:14:54.901Z,48.78
2023-05-06T08:15:57.109Z,49.52
2023-05-06T08:16:59.304Z,49.87
2023-05-06T08:18:13.672Z,50.37
2023-05-06T08:19:21.446Z,49.53
2023-05-06T08:20:23.597Z,48.78
2023-05-06T08:21:25.791Z,48.12
2023-05-06T08:22:27.964Z,48.25
2023-05-06T08:23:31.257Z,48.42
2023-05-06T08:24:33.400Z,48.16
2023-05-06T08:25:35.701Z,47.67
2023-05-06T08:26:37.819Z,46.56
2023-05-06T08:27:40.543Z,47.52
2023-05-06T08:28:42.674Z,46.72
2023-05-06T08:29:44.795Z,45.19
2023-05-06T08:30:48.581Z,46.05
2023-05-06T08:31:50.885Z,46.30
2023-05-06T08:32:53.119Z,45.79
2023-05-06T08:33:55.266Z,46.01
2023-05-06T08:34:57.370Z,46.16
2023-05-06T08:35:59.562Z,46.08
2023-05-06T08:37:02.363Z,45.65
2023-05-06T08:38:04.585Z,45.81
2023-05-06T08:39:06.661Z,45.10
2023-05-06T08:40:19.329Z,45.51
2023-05-06T08:41:22.152Z,46.10
2023-05-06T08:42:26.145Z,45.79
2023-05-06T08:43:28.828Z,45.37
2023-05-06T08:44:31.491Z,45.18
2023-05-06T08:45:33.635Z,45.93
2023-05-06T08:46:35.829Z,46.12
2023-05-06T08:47:38.007Z,45.17
2023-05-06T08:48:40.773Z,45.53
2023-05-06T08:49:42.870Z,45.32
2023-05-06T08:50:45.089Z,45.81
2023-05-06T08:51:49.589Z,44.51
2023-05-06T08:52:51.587Z,44.62
2023-05-06T08:53:55.166Z,44.56
2023-05-06T08:55:01.420Z,44.67
2023-05-06T08:56:08.796Z,45.10
2023-05-06T08:57:12.531Z,44.50
2023-05-06T08:58:16.921Z,44.64
2023-05-06T08:59:26.886Z,43.53
2023-05-06T09:00:29.105Z,43.42
2023-05-06T09:01:31.324Z,42.81
2023-05-06T09:02:33.616Z,42.55
2023-05-06T09:03:36.057Z,42.45
2023-05-06T09:04:38.396Z,41.95
2023-05-06T09:05:40.542Z,42.84
2023-05-06T09:06:42.662Z,42.43
2023-05-06T09:07:44.747Z,40.83
2023-05-06T09:08:47.118Z,41.17
2023-05-06T09:09:49.503Z,39.88
2023-05-06T09:10:51.739Z,38.91
2023-05-06T09:11:57.840Z,39.22
2023-05-06T09:13:00.019Z,39.58
2023-05-06T09:14:08.014Z,40.09
2023-05-06T09:15:10.843Z,39.87
2023-05-06T09:16:27.266Z,39.59
2023-05-06T09:17:31.923Z,39.71
2023-05-06T09:18:37.250Z,38.55
2023-05-06T09:19:39.490Z,38.64
2023-05-06T09:20:46.329Z,39.32
2023-05-06T09:21:49.926Z,39.50
2023-05-06T09:22:52.095Z,38.65
2023-05-06T09:23:54.202Z,37.76
2023-05-06T09:24:59.644Z,36.14
2023-05-06T09:26:01.882Z,36.14
2023-05-06T09:27:04.540Z,34.89
2023-05-06T09:28:08.279Z,34.08
2023-05-06T09:29:10.784Z,34.50
2023-05-06T09:30:13.447Z,34.89
2023-05-06T09:31:16.006Z,33.30
2023-05-06T09:32:18.242Z,33.26
2023-05-06T09:33:21.677Z,34.04
2023-05-06T09:34:24.723Z,34.32
2023-05-06T09:35:35.103Z,33.86
2023-05-06T09:36:37.713Z,34.32
2023-05-06T09:37:39.804Z,32.59
2023-05-06T09:38:42.053Z,32.10
2023-05-06T09:39:44.241Z,32.63
2023-05-06T09:40:46.342Z,33.44
2023-05-06T09:41:48.406Z,32.45
2023-05-06T09:42:53.317Z,32.59
2023-05-06T09:43:56.471Z,31.77
2023-05-06T09:45:02.489Z,30.60
2023-05-06T09:46:06.392Z,30.39
2023-05-06T09:47:09.064Z,31.84
2023-05-06T09:48:11.269Z,32.67
2023-05-06T09:49:15.160Z,32.79
2023-05-06T09:50:17.678Z,33.78
2023-05-06T09:51:20.777Z,34.29
2023-05-06T09:52:23.320Z,35.60
2023-05-06T09:53:25.743Z,36.69
2023-05-06T09:54:28.336Z,36.92
2023-05-06T09:55:30.767Z,36.31
2023-05-06T09:56:33.115Z,35.35
2023-05-06T09:57:35.526Z,36.05
2023-05-06T09:58:38.267Z,35.57
2023-05-06T09:59:41.936Z,35.88
2023-05-06T10:00:44.264Z,35.32
2023-05-06T10:01:47.099Z,35.95
2023-05-06T10:02:49.524Z,37.02
2023-05-06T10:03:53.366Z,37.37
2023-05-06T10:04:57.513Z,36.87
2023-05-06T10:06:05.342Z,36.19
2023-05-06T10:07:09.163Z,36.23
2023-05-06T10:08:13.262Z,35.44
2023-05-06T10:09:16.290Z,35.44
2023-05-06T10:10:18.499Z,35.73
2023-05-06T10:11:21.343Z,35.29
2023-05-06T10:12:24.211Z,35.85
2023-05-06T10:13:27.158Z,35.11
2023-05-06T10:14:29.353Z,35.46
2023-05-06T10:15:32.627Z,36.09
2023-05-06T10:16:36.392Z,35.31
2023-05-06T10:17:39.854Z,33.77
2023-05-06T10:18:42.677Z,34.28
2023-05-06T10:19:49.100Z,33.67
2023-05-06T10:20:53.603Z,32.13
2023-05-06T10:21:58.000Z,32.70
2023-05-06T10:23:13.831Z,33.71
2023-05-06T10:24:19.330Z,33.96
2023-05-06T10:25:37.755Z,32.11
2023-05-06T10:26:40.956Z,31.53
2023-05-06T10:27:45.992Z,31.69
2023-05-06T10:28:52.710Z,31.15
2023-05-06T10:30:00.084Z,31.71
2023-05-06T10:31:04.548Z,31.50
2023-05-06T10:32:06.831Z,30.80
2023-05-06T10:33:10.454Z,30.24
2023-05-06T10:34:13.635Z,30.28
2023-05-06T10:35:22.990Z,29.85
2023-05-06T10:36:27.815Z,28.57
2023-05-06T10:37:32.707Z,29.52
2023-05-06T10:38:41.325Z,28.82
2023-05-06T10:39:43.568Z,28.29
2023-05-06T10:40:46.441Z,28.42
2023-05-06T10:41:48.782Z,28.08
2023-05-06T10:42:51.517Z,28.67
2023-05-06T10:43:57.366Z,28.96
2023-05-06T10:45:01.731Z,30.22
2023-05-06T10:46:15.093Z,30.37
2023-05-06T10:47:17.554Z,29.77
2023-05-06T10:48:19.607Z,30.39
2023-05-06T10:49:21.714Z,29.16
2023-05-06T10:50:25.140Z,29.85
2023-05-06T10:51:28.516Z,31.48
2023-05-06T10:52:46.886Z,30.00
2023-05-06T10:54:04.808Z,29.68
2023-05-06T10:55:26.174Z,28.69
2023-05-06T10:56:32.983Z,28.53
2023-05-06T10:57:41.186Z,27.10
2023-05-06T10:58:47.741Z,26.80
2023-05-06T10:59:49.964Z,25.12
2023-05-06T11:00:55.632Z,25.09
2023-05-06T11:02:04.627Z,25.95
2023-05-06T11:03:18.674Z,26.29
2023-05-06T11:04:21.215Z,25.24
2023-05-06T11:05:24.066Z,25.15
2023-05-06T11:06:47.148Z,24.75
2023-05-06T11:07:53.141Z,24.90
2023-05-06T11:08:57.201Z,25.21
2023-05-06T11:10:08.103Z,23.83
2023-05-06T11:11:54.938Z,25.78
2023-05-06T11:12:57.172Z,27.17
2023-05-06T11:14:13.063Z,27.41
2023-05-06T11:15:26.516Z,27.16
2023-05-06T11:16:48.800Z,28.00
2023-05-06T11:17:51.206Z,28.48
2023-05-06T11:18:54.667Z,29.65
2023-05-06T11:20:26.654Z,29.06
2023-05-06T11:21:31.711Z,29.69
2023-05-06T11:22:41.132Z,28.59
2023-05-06T11:24:03.492Z,28.43
2023-05-06T11:25:06.676Z,27.44
2023-05-06T11:26:10.050Z,28.39
2023-05-06T11:27:17.548Z,27.74
2023-05-06T11:28:20.502Z,27.88
2023-05-06T11:29:23.140Z,27.80
2023-05-06T11:30:25.837Z,29.20
2023-05-06T11:31:29.832Z,30.10
2023-05-06T11:32:33.222Z,31.53
2023-05-06T11:33:36.907Z,30.29
2023-05-06T11:34:39.196Z,30.04
2023-05-06T11:35:41.292Z,30.17
2023-05-06T11:36:49.212Z,30.58
2023-05-06T11:37:52.213Z,31.17
2023-05-06T11:38:56.335Z,31.03
2023-05-06T11:39:58.467Z,30.29
2023-05-06T11:41:01.045Z,31.48
2023-05-06T11:42:08.569Z,31.20
2023-05-06T11:43:14.740Z,30.56
2023-05-06T11:44:27.227Z,31.54
2023-05-06T11:45:49.971Z,31.24
2023-05-06T11:46:52.769Z,32.56
2023-05-06T11:47:55.280Z,33.33
2023-05-06T11:48:57.471Z,33.17
2023-05-06T11:49:59.993Z,33.71
2023-05-06T11:51:02.135Z,33.60
2023-05-06T11:52:04.612Z,33.53
2023-05-06T11:53:06.751Z,34.37
2023-05-06T11:54:10.227Z,34.71
2023-05-06T11:55:12.372Z,34.42
2023-05-06T11:56:14.520Z,34.63
2023-05-06T11:57:16.663Z,34.55
2023-05-06T11:58:21.045Z,34.42
2023-05-06T11:59:33.780Z,34.58
2023-05-06T12:00:35.885Z,35.15
2023-05-06T12:01:39.354Z,35.14
2023-05-06T12:02:41.588Z,35.27
2023-05-06T12:03:44.023Z,35.85
2023-05-06T12:04:47.585Z,35.27
2023-05-06T12:05:50.897Z,35.66
2023-05-06T12:06:55.435Z,34.09
2023-05-06T12:07:57.443Z,34.58
2023-05-06T12:08:59.522Z,35.08
2023-05-06T12:10:04.310Z,35.11
2023-05-06T12:11:11.249Z,35.51
2023-05-06T12:12:17.631Z,35.19
2023-05-06T12:13:20.292Z,35.51
2023-05-06T12:14:22.513Z,35.58
2023-05-06T12:15:24.637Z,35.54
2023-05-06T12:16:27.230Z,34.74
2023-05-06T12:17:29.450Z,34.84
2023-05-06T12:18:32.192Z,35.08
2023-05-06T12:19:34.840Z,34.89
2023-05-06T12:20:36.972Z,34.72
2023-05-06T12:21:39.347Z,34.84
2023-05-06T12:22:41.905Z,34.56
2023-05-06T12:23:52.432Z,34.98
2023-05-06T12:24:54.580Z,35.05
2023-05-06T12:26:05.019Z,34.67
2023-05-06T12:27:08.063Z,34.93
2023-05-06T12:28:17.422Z,34.75
2023-05-06T12:29:19.540Z,34.77
2023-05-06T12:30:32.253Z,34.68
2023-05-06T12:31:34.737Z,34.78
2023-05-06T12:32:47.169Z,34.26
2023-05-06T12:33:50.169Z,34.63
2023-05-06T12:34:52.301Z,34.59
2023-05-06T12:35:58.347Z,34.06
2023-05-06T12:37:00.431Z,34.59
2023-05-06T12:38:15.637Z,34.37
2023-05-06T12:39:17.780Z,33.75
2023-05-06T12:40:19.911Z,34.06
2023-05-06T12:41:23.105Z,34.10
2023-05-06T12:42:25.390Z,34.43
2023-05-06T12:43:31.028Z,34.38
2023-05-06T12:44:33.418Z,34.23
2023-05-06T12:45:35.651Z,34.47
2023-05-06T12:46:50.376Z,34.39
2023-05-06T12:47:57.453Z,34.66
2023-05-06T12:49:00.442Z,34.57
2023-05-06T12:50:02.652Z,34.84
2023-05-06T12:51:18.801Z,34.95
2023-05-06T12:52:22.636Z,35.35
2023-05-06T12:53:35.258Z,35.75
2023-05-06T12:54:37.861Z,35.86
2023-05-06T12:55:45.251Z,35.37
2023-05-06T12:56:47.446Z,35.71
2023-05-06T12:57:49.722Z,35.54
2023-05-06T12:59:03.059Z,35.55
2023-05-06T13:00:07.451Z,35.07
2023-05-06T13:01:09.510Z,35.47
2023-05-06T13:02:12.046Z,36.08
2023-05-06T13:03:14.318Z,35.22
2023-05-06T13:04:16.473Z,35.38
2023-05-06T13:05:18.548Z,36.36
2023-05-06T13:06:20.635Z,36.27
2023-05-06T13:07:22.795Z,35.89
2023-05-06T13:08:25.023Z,36.27
2023-05-06T13:09:27.191Z,36.47
2023-05-06T13:10:29.309Z,36.64
2023-05-06T13:11:31.754Z,36.90
2023-05-06T13:12:33.861Z,37.04
2023-05-06T13:13:36.288Z,37.53
2023-05-06T13:14:40.104Z,38.41
2023-05-06T13:15:43.078Z,38.14
2023-05-06T13:16:45.554Z,38.06
2023-05-06T13:17:48.978Z,38.06
2023-05-06T13:18:51.217Z,37.97
2023-05-06T13:19:53.916Z,37.86
2023-05-06T13:20:56.128Z,38.30
2023-05-06T13:21:58.854Z,37.69
2023-05-06T13:23:01.042Z,38.39
2023-05-06T13:24:03.640Z,37.63
2023-05-06T13:25:06.032Z,37.72
2023-05-06T13:26:08.124Z,37.91
2023-05-06T13:27:10.546Z,37.60
2023-05-06T13:28:12.676Z,37.64
2023-05-06T13:29:14.818Z,37.55
2023-05-06T13:30:17.152Z,37.67
2023-05-06T13:31:19.394Z,37.53
2023-05-06T13:32:21.645Z,37.78
2023-05-06T13:33:23.772Z,37.79
2023-05-06T13:34:26.076Z,37.75
2023-05-06T13:35:28.286Z,37.75
2023-05-06T13:36:31.218Z,37.75
2023-05-06T13:37:33.308Z,36.80
2023-05-06T13:38:35.812Z,37.23